createdAt,value
2019-01-25T00:01:14.331Z,88.80
2019-01-25T00:03:42.677Z,89.80
2019-01-25T00:06:10.768Z,98.60
2019-01-25T00:08:39.009Z,100.37
2019-01-25T00:11:08.060Z,89.67
2019-01-25T00:13:35.974Z,96.77
2019-01-25T00:16:04.076Z,101.10
2019-01-25T00:18:32.076Z,94.83
2019-01-25T00:21:01.162Z,96.30
2019-01-25T00:23:31.965Z,95.43
2019-01-25T00:25:59.935Z,89.63
2019-01-25T00:28:28.465Z,101.20
2019-01-25T00:30:56.491Z,102.80
2019-01-25T00:33:28.040Z,99.07
2019-01-25T00:35:56.044Z,106.53
2019-01-25T00:38:24.084Z,108.13
2019-01-25T00:40:52.100Z,99.43
2019-01-25T00:43:20.153Z,96.07
2019-01-25T00:45:48.204Z,103.43
2019-01-25T00:48:16.282Z,107.17
2019-01-25T00:50:44.371Z,116.83
2019-01-25T00:53:12.434Z,106.77
2019-01-25T00:55:40.509Z,105.77
2019-01-25T00:58:09.040Z,112.27
2019-01-25T01:00:39.753Z,106.80
2019-01-25T01:03:07.671Z,120.30
2019-01-25T01:05:35.616Z,99.23
2019-01-25T01:08:03.791Z,103.27
2019-01-25T01:10:31.735Z,105.63
2019-01-25T01:12:59.671Z,97.70
2019-01-25T01:15:27.651Z,105.97
2019-01-25T01:17:57.070Z,108.50
2019-01-25T01:20:25.027Z,105.63
2019-01-25T01:22:53.185Z,103.40
2019-01-25T01:25:21.560Z,107.47
2019-01-25T01:27:49.530Z,112.17
2019-01-25T01:30:19.203Z,104.17
2019-01-25T01:32:47.169Z,109.97
2019-01-25T01:35:15.143Z,103.37
2019-01-25T01:37:43.160Z,102.13
2019-01-25T01:40:21.720Z,95.93
2019-01-25T01:42:45.741Z,117.83
2019-01-25T01:45:13.849Z,111.20
2019-01-25T01:47:41.991Z,112.13
2019-01-25T01:50:10.796Z,103.90
2019-01-25T01:52:41.894Z,107.20
2019-01-25T01:55:09.902Z,121.70
2019-01-25T01:57:37.949Z,112.70
2019-01-25T02:00:07.368Z,106.97
2019-01-25T02:02:35.350Z,104.83
2019-01-25T02:05:03.435Z,114.17
2019-01-25T02:07:31.524Z,112.67
2019-01-25T02:09:59.570Z,113.17
2019-01-25T02:12:27.623Z,115.80
2019-01-25T02:14:55.616Z,124.70
2019-01-25T02:17:23.541Z,110.73
2019-01-25T02:19:51.583Z,123.63
2019-01-25T02:22:19.603Z,117.47
2019-01-25T02:24:47.641Z,121.87
2019-01-25T02:27:15.661Z,122.60
2019-01-25T02:29:43.678Z,114.53
2019-01-25T02:32:11.785Z,131.20
2019-01-25T02:34:39.772Z,123.30
2019-01-25T02:37:07.772Z,110.27
2019-01-25T02:39:35.776Z,126.57
2019-01-25T02:42:03.891Z,121.10
2019-01-25T02:44:31.881Z,98.43
2019-01-25T02:46:59.884Z,106.03
2019-01-25T02:49:28.022Z,102.47
2019-01-25T02:51:56.003Z,112.37
2019-01-25T02:54:24.138Z,117.50
2019-01-25T02:56:52.203Z,104.07
2019-01-25T02:59:20.145Z,113.10
2019-01-25T03:01:48.089Z,97.27
2019-01-25T03:04:16.233Z,98.57
2019-01-25T03:06:44.181Z,105.30
2019-01-25T03:09:12.238Z,113.73
2019-01-25T03:11:40.234Z,108.63
2019-01-25T03:14:08.191Z,83.80
2019-01-25T03:16:36.557Z,94.87
2019-01-25T03:19:04.494Z,97.30
2019-01-25T03:21:32.509Z,98.67
2019-01-25T03:24:00.492Z,97.93
2019-01-25T03:26:28.550Z,97.50
2019-01-25T03:28:56.589Z,93.77
2019-01-25T03:31:24.590Z,93.10
2019-01-25T03:33:52.610Z,96.17
2019-01-25T03:36:20.613Z,101.60
2019-01-25T03:38:48.651Z,84.40
2019-01-25T03:41:16.624Z,88.40
2019-01-25T03:43:44.527Z,79.00
2019-01-25T03:46:12.562Z,83.93
2019-01-25T03:48:40.577Z,83.77
2019-01-25T03:51:08.535Z,81.13
2019-01-25T03:53:36.521Z,86.00
2019-01-25T03:56:04.439Z,83.90
2019-01-25T03:58:32.843Z,86.23
2019-01-25T04:01:00.877Z,79.23
2019-01-25T04:03:29.200Z,86.23
2019-01-25T04:05:57.391Z,87.13
2019-01-25T04:08:25.376Z,84.57
2019-01-25T04:10:53.392Z,78.83
2019-01-25T04:13:21.475Z,78.53
2019-01-25T04:15:49.465Z,83.93
2019-01-25T04:18:17.524Z,79.97
2019-01-25T04:20:45.500Z,77.50
2019-01-25T04:23:13.482Z,83.70
2019-01-25T04:25:41.533Z,85.63
2019-01-25T04:28:09.543Z,82.27
2019-01-25T04:30:37.539Z,82.27
2019-01-25T04:33:05.486Z,88.23
2019-01-25T04:35:33.495Z,86.10
2019-01-25T04:38:01.645Z,81.67
2019-01-25T04:40:29.649Z,82.47
2019-01-25T04:42:57.765Z,87.97
2019-01-25T04:45:25.723Z,86.93
2019-01-25T04:47:53.753Z,81.83
2019-01-25T04:50:22.540Z,83.57
2019-01-25T04:52:50.584Z,91.97
2019-01-25T04:55:22.740Z,87.57
2019-01-25T04:57:50.719Z,77.77
2019-01-25T05:00:19.070Z,77.70
2019-01-25T05:02:59.626Z,76.93
2019-01-25T05:05:27.541Z,79.80
2019-01-25T05:08:02.142Z,81.77
2019-01-25T05:10:29.984Z,79.90
2019-01-25T05:12:57.854Z,86.67
2019-01-25T05:15:25.812Z,78.53
2019-01-25T05:17:54.278Z,74.43
2019-01-25T05:20:24.887Z,74.63
2019-01-25T05:22:56.832Z,72.20
2019-01-25T05:25:25.300Z,77.50
2019-01-25T05:27:53.234Z,81.83
2019-01-25T05:30:21.149Z,75.97
2019-01-25T05:32:49.214Z,83.90
2019-01-25T05:35:17.175Z,84.07
2019-01-25T05:37:45.065Z,79.80
2019-01-25T05:40:17.063Z,80.43
2019-01-25T05:42:44.975Z,77.37
2019-01-25T05:45:12.874Z,81.47
2019-01-25T05:47:40.848Z,77.90
2019-01-25T05:50:08.989Z,80.00
2019-01-25T05:52:37.005Z,81.47
2019-01-25T05:55:06.244Z,81.73
2019-01-25T05:57:35.756Z,78.53
2019-01-25T06:00:05.584Z,84.37
2019-01-25T06:02:33.412Z,82.17
2019-01-25T06:05:01.446Z,81.13
2019-01-25T06:07:29.440Z,85.83
2019-01-25T06:09:57.283Z,84.43
2019-01-25T06:12:25.187Z,84.50
2019-01-25T06:14:53.638Z,81.77
2019-01-25T06:17:21.541Z,80.50
2019-01-25T06:19:49.432Z,78.27
2019-01-25T06:22:17.392Z,85.00
2019-01-25T06:24:47.606Z,77.60
2019-01-25T06:27:15.625Z,78.77
2019-01-25T06:29:43.660Z,85.87
2019-01-25T06:32:11.603Z,84.57
2019-01-25T06:34:39.551Z,89.67
2019-01-25T06:37:07.640Z,85.73
2019-01-25T06:39:35.626Z,83.93
2019-01-25T06:42:03.773Z,79.57
2019-01-25T06:44:31.812Z,80.53
2019-01-25T06:46:59.852Z,85.70
2019-01-25T06:49:28.003Z,90.50
2019-01-25T06:51:56.001Z,87.63
2019-01-25T06:54:24.011Z,77.67
2019-01-25T06:56:52.129Z,88.47
2019-01-25T06:59:27.907Z,81.50
2019-01-25T07:02:03.831Z,88.40
2019-01-25T07:04:31.729Z,80.60
2019-01-25T07:06:59.592Z,87.20
2019-01-25T07:09:27.508Z,85.77
2019-01-25T07:11:55.385Z,83.90
2019-01-25T07:14:23.235Z,78.43
2019-01-25T07:16:51.207Z,68.20
2019-01-25T07:19:19.060Z,67.23
2019-01-25T07:21:46.907Z,68.87
2019-01-25T07:24:14.947Z,74.97
2019-01-25T07:26:42.730Z,68.80
2019-01-25T07:29:10.593Z,68.93
2019-01-25T07:31:38.725Z,66.50
2019-01-25T07:34:06.876Z,65.30
2019-01-25T07:36:34.725Z,62.57
2019-01-25T07:39:06.195Z,67.87
2019-01-25T07:41:34.069Z,66.73
2019-01-25T07:44:01.965Z,57.83
2019-01-25T07:46:29.913Z,57.43
2019-01-25T07:48:57.734Z,64.27
2019-01-25T07:51:28.632Z,65.63
2019-01-25T07:53:56.541Z,60.57
2019-01-25T07:56:24.404Z,71.60
2019-01-25T07:58:52.361Z,68.30
2019-01-25T08:01:20.333Z,67.33
2019-01-25T08:03:48.272Z,70.47
2019-01-25T08:06:16.260Z,63.07
2019-01-25T08:08:44.121Z,74.40
2019-01-25T08:11:12.023Z,73.37
2019-01-25T08:13:39.917Z,76.47
2019-01-25T08:16:07.765Z,68.40
2019-01-25T08:18:35.669Z,72.90
2019-01-25T08:21:03.501Z,68.13
2019-01-25T08:23:31.437Z,78.13
2019-01-25T08:25:59.296Z,77.27
2019-01-25T08:28:27.121Z,66.60
2019-01-25T08:30:55.032Z,78.77
2019-01-25T08:33:22.946Z,66.90
2019-01-25T08:35:50.784Z,62.17
2019-01-25T08:38:18.721Z,57.33
2019-01-25T08:40:46.661Z,47.10
2019-01-25T08:43:14.447Z,45.77
2019-01-25T08:45:42.347Z,45.80
2019-01-25T08:48:10.279Z,40.73
2019-01-25T08:50:38.198Z,44.33
2019-01-25T08:53:06.142Z,41.50
2019-01-25T08:55:34.534Z,43.10
2019-01-25T08:58:02.479Z,47.53
2019-01-25T09:00:30.310Z,47.83
2019-01-25T09:02:58.209Z,51.90
2019-01-25T09:05:26.717Z,49.90
2019-01-25T09:07:54.661Z,50.27
2019-01-25T09:10:22.526Z,52.73
2019-01-25T09:12:50.339Z,50.07
2019-01-25T09:15:27.560Z,50.27
2019-01-25T09:17:55.374Z,52.37
2019-01-25T09:20:23.627Z,52.00
2019-01-25T09:22:51.507Z,51.47
2019-01-25T09:25:20.243Z,50.30
2019-01-25T09:27:48.496Z,54.07
2019-01-25T09:30:20.388Z,60.63
2019-01-25T09:32:48.257Z,54.97
2019-01-25T09:35:16.303Z,60.00
2019-01-25T09:37:44.224Z,59.67
2019-01-25T09:40:13.666Z,64.50
2019-01-25T09:42:41.629Z,62.73
2019-01-25T09:45:09.900Z,63.80
2019-01-25T09:47:37.792Z,75.10
2019-01-25T09:50:06.116Z,72.73
2019-01-25T09:52:33.983Z,79.53
2019-01-25T09:55:01.838Z,75.23
2019-01-25T09:57:29.672Z,72.53
2019-01-25T09:59:57.541Z,73.23
2019-01-25T10:02:25.560Z,69.83
2019-01-25T10:04:54.062Z,71.63
2019-01-25T10:07:22.119Z,69.27
2019-01-25T10:09:49.986Z,68.43
2019-01-25T10:12:17.900Z,68.33
2019-01-25T10:14:45.956Z,62.80
2019-01-25T10:17:13.836Z,63.33
2019-01-25T10:19:41.663Z,64.50
2019-01-25T10:22:10.449Z,56.07
2019-01-25T10:24:38.430Z,54.33
2019-01-25T10:27:06.263Z,57.70
2019-01-25T10:29:34.284Z,55.00
2019-01-25T10:32:02.227Z,57.60
2019-01-25T10:34:30.060Z,53.20
2019-01-25T10:36:57.928Z,59.77
2019-01-25T10:39:25.832Z,57.07
2019-01-25T10:41:54.548Z,63.57
2019-01-25T10:44:22.516Z,56.77
2019-01-25T10:46:50.469Z,63.00
2019-01-25T10:49:18.393Z,61.83
2019-01-25T10:51:46.472Z,61.07
2019-01-25T10:54:14.383Z,61.27
2019-01-25T10:56:42.217Z,63.50
2019-01-25T10:59:10.161Z,66.30
2019-01-25T11:01:38.072Z,66.93
2019-01-25T11:04:11.472Z,65.57
2019-01-25T11:06:38.233Z,63.13
2019-01-25T11:09:07.526Z,79.20
2019-01-25T11:11:35.446Z,76.37
2019-01-25T11:14:03.378Z,77.00
2019-01-25T11:16:31.307Z,77.70
2019-01-25T11:18:59.266Z,83.87
2019-01-25T11:21:27.248Z,81.80
2019-01-25T11:23:55.100Z,85.80
2019-01-25T11:26:23.122Z,88.90
2019-01-25T11:28:51.068Z,93.03
2019-01-25T11:31:19.060Z,98.20
2019-01-25T11:33:46.883Z,91.47
2019-01-25T11:36:15.164Z,91.23
2019-01-25T11:38:43.254Z,92.97
2019-01-25T11:41:11.158Z,99.67
2019-01-25T11:43:39.071Z,89.53
2019-01-25T11:46:07.087Z,97.30
2019-01-25T11:48:35.056Z,95.17
2019-01-25T11:51:03.559Z,100.77
2019-01-25T11:53:31.479Z,95.43
2019-01-25T11:55:59.377Z,91.90
2019-01-25T11:58:27.377Z,100.07
2019-01-25T12:00:55.337Z,92.63
2019-01-25T12:03:23.269Z,91.70
2019-01-25T12:05:51.237Z,88.07
2019-01-25T12:08:19.445Z,84.03
2019-01-25T12:10:48.725Z,81.17
2019-01-25T12:13:16.962Z,87.33
2019-01-25T12:15:45.734Z,85.07
2019-01-25T12:18:13.659Z,75.93
2019-01-25T12:20:41.821Z,73.27
2019-01-25T12:23:12.855Z,75.20
2019-01-25T12:25:40.890Z,80.37
2019-01-25T12:28:08.718Z,81.87
2019-01-25T12:30:38.232Z,80.70
2019-01-25T12:33:07.301Z,75.23
2019-01-25T12:35:36.065Z,80.00
2019-01-25T12:38:04.039Z,74.47
2019-01-25T12:40:31.907Z,69.60
2019-01-25T12:43:01.546Z,70.10
2019-01-25T12:45:31.549Z,70.80
2019-01-25T12:47:59.449Z,68.10
2019-01-25T12:50:30.326Z,73.47
2019-01-25T12:52:58.572Z,64.87
2019-01-25T12:55:26.634Z,64.00
2019-01-25T12:57:54.643Z,64.63
2019-01-25T13:00:24.242Z,71.90
2019-01-25T13:02:52.515Z,69.73
2019-01-25T13:05:22.312Z,63.97
2019-01-25T13:07:50.232Z,64.90
2019-01-25T13:10:18.595Z,74.87
2019-01-25T13:12:46.599Z,63.90
2019-01-25T13:15:14.529Z,60.57
2019-01-25T13:17:42.373Z,67.13
2019-01-25T13:20:17.544Z,67.47
2019-01-25T13:22:45.588Z,68.17
2019-01-25T13:25:14.245Z,65.90
2019-01-25T13:27:42.237Z,69.20
2019-01-25T13:30:14.600Z,68.57
2019-01-25T13:32:42.611Z,72.13
2019-01-25T13:35:10.551Z,69.63
2019-01-25T13:37:38.515Z,70.97
2019-01-25T13:40:07.942Z,79.40
2019-01-25T13:42:36.067Z,70.37
2019-01-25T13:45:03.906Z,74.57
2019-01-25T13:47:31.755Z,77.90
2019-01-25T13:49:59.783Z,63.97
2019-01-25T13:52:27.600Z,72.87
2019-01-25T13:54:55.555Z,64.93
2019-01-25T13:57:23.709Z,69.53
2019-01-25T13:59:51.693Z,65.67
2019-01-25T14:02:19.634Z,67.20
2019-01-25T14:04:48.831Z,67.27
2019-01-25T14:07:20.965Z,64.33
2019-01-25T14:09:46.288Z,65.73
2019-01-25T14:12:15.204Z,72.40
2019-01-25T14:14:45.563Z,66.47
2019-01-25T14:17:13.500Z,70.70
2019-01-25T14:19:41.879Z,64.40
2019-01-25T14:22:10.027Z,67.43
2019-01-25T14:24:37.902Z,63.27
2019-01-25T14:27:05.867Z,67.63
2019-01-25T14:29:34.814Z,61.00
2019-01-25T14:32:02.716Z,64.03
2019-01-25T14:34:30.769Z,62.47
2019-01-25T14:36:58.626Z,60.10
2019-01-25T14:39:26.578Z,69.87
2019-01-25T14:41:54.459Z,59.47
2019-01-25T14:44:22.337Z,60.13
2019-01-25T14:46:50.296Z,62.27
2019-01-25T14:49:19.896Z,65.60
2019-01-25T14:51:50.099Z,57.20
2019-01-25T14:54:18.150Z,61.57
2019-01-25T14:56:46.087Z,62.47
2019-01-25T14:59:15.571Z,62.37
2019-01-25T15:01:44.559Z,60.20
2019-01-25T15:04:12.602Z,63.43
2019-01-25T15:06:43.093Z,63.77
2019-01-25T15:09:11.087Z,58.10
2019-01-25T15:11:39.065Z,60.33
2019-01-25T15:14:07.038Z,63.73
2019-01-25T15:16:36.901Z,55.63
2019-01-25T15:19:08.586Z,54.53
2019-01-25T15:21:37.627Z,56.13
2019-01-25T15:24:08.815Z,55.87
2019-01-25T15:26:36.774Z,53.77
2019-01-25T15:29:08.017Z,46.60
2019-01-25T15:31:35.916Z,51.47
2019-01-25T15:34:04.024Z,51.47
2019-01-25T15:36:32.025Z,49.60
2019-01-25T15:38:59.903Z,42.60
2019-01-25T15:41:27.966Z,46.87
2019-01-25T15:43:55.823Z,45.47
2019-01-25T15:46:23.713Z,45.83
2019-01-25T15:48:51.676Z,41.87
2019-01-25T15:51:19.699Z,42.63
2019-01-25T15:53:47.612Z,37.87
2019-01-25T15:56:15.507Z,39.77
2019-01-25T15:58:43.371Z,42.90
2019-01-25T16:01:11.415Z,41.40
2019-01-25T16:03:39.360Z,42.40
2019-01-25T16:06:07.195Z,43.90
2019-01-25T16:08:35.213Z,42.67
2019-01-25T16:11:03.237Z,41.80
2019-01-25T16:13:31.039Z,46.30
2019-01-25T16:15:59.003Z,45.67
2019-01-25T16:18:26.920Z,43.33
2019-01-25T16:20:55.169Z,37.50
2019-01-25T16:23:23.059Z,39.80
2019-01-25T16:25:51.010Z,45.67
2019-01-25T16:28:18.927Z,41.47
2019-01-25T16:30:46.744Z,39.23
2019-01-25T16:33:14.805Z,33.27
2019-01-25T16:35:42.662Z,35.00
2019-01-25T16:38:10.480Z,38.93
2019-01-25T16:40:38.733Z,37.87
2019-01-25T16:43:07.761Z,32.90
2019-01-25T16:45:42.831Z,37.07
2019-01-25T16:48:12.733Z,30.50
2019-01-25T16:50:40.820Z,27.13
2019-01-25T16:53:09.586Z,27.87
2019-01-25T16:55:37.492Z,31.93
2019-01-25T16:58:05.732Z,25.17
2019-01-25T17:00:34.654Z,26.83
2019-01-25T17:03:02.619Z,28.40
2019-01-25T17:05:30.670Z,24.13
2019-01-25T17:07:58.499Z,23.50
2019-01-25T17:10:26.429Z,22.80
2019-01-25T17:12:54.439Z,26.10
2019-01-25T17:15:22.389Z,26.67
2019-01-25T17:17:50.277Z,21.37
2019-01-25T17:20:21.376Z,24.00
2019-01-25T17:22:48.145Z,24.70
2019-01-25T17:25:15.978Z,27.80
2019-01-25T17:27:43.987Z,25.50
2019-01-25T17:30:13.748Z,25.20
2019-01-25T17:32:41.561Z,24.63
2019-01-25T17:35:09.417Z,31.70
2019-01-25T17:37:37.352Z,32.57
2019-01-25T17:40:06.217Z,31.83
2019-01-25T17:42:34.075Z,29.83
2019-01-25T17:45:01.917Z,36.57
2019-01-25T17:47:29.965Z,36.20
2019-01-25T17:49:57.886Z,39.40
2019-01-25T17:52:25.792Z,41.00
2019-01-25T17:54:53.684Z,45.10
2019-01-25T17:57:21.539Z,41.90
2019-01-25T17:59:49.388Z,50.90
2019-01-25T18:02:17.353Z,53.77
2019-01-25T18:04:45.456Z,61.50
2019-01-25T18:07:13.384Z,58.63
2019-01-25T18:09:41.294Z,70.13
2019-01-25T18:12:09.424Z,78.50
2019-01-25T18:14:37.295Z,77.10
2019-01-25T18:17:05.187Z,89.03
2019-01-25T18:19:33.177Z,77.90
2019-01-25T18:22:01.020Z,79.73
2019-01-25T18:24:28.949Z,73.80
2019-01-25T18:26:59.996Z,84.67
2019-01-25T18:29:33.642Z,85.67
2019-01-25T18:32:01.557Z,79.13
2019-01-25T18:34:29.488Z,66.37
2019-01-25T18:36:57.361Z,77.70
2019-01-25T18:39:25.336Z,68.37
2019-01-25T18:41:53.264Z,73.07
2019-01-25T18:44:21.182Z,73.57
2019-01-25T18:46:49.091Z,72.50
2019-01-25T18:49:17.008Z,77.13
2019-01-25T18:51:45.389Z,77.30
2019-01-25T18:54:13.522Z,69.60
2019-01-25T18:56:42.187Z,66.57
2019-01-25T18:59:10.132Z,56.20
2019-01-25T19:01:38.016Z,56.77
2019-01-25T19:04:06.066Z,58.97
2019-01-25T19:06:34.645Z,52.20
2019-01-25T19:09:02.502Z,64.87
2019-01-25T19:11:30.416Z,58.27
2019-01-25T19:13:58.593Z,53.40
2019-01-25T19:16:26.787Z,47.87
2019-01-25T19:18:54.628Z,48.30
2019-01-25T19:21:24.829Z,48.33
2019-01-25T19:23:54.056Z,45.57
2019-01-25T19:26:21.974Z,44.17
2019-01-25T19:28:49.946Z,48.60
2019-01-25T19:31:17.892Z,47.20
2019-01-25T19:33:45.798Z,40.70
2019-01-25T19:36:13.768Z,36.33
2019-01-25T19:38:41.651Z,35.10
2019-01-25T19:41:09.612Z,33.33
2019-01-25T19:43:37.530Z,35.47
2019-01-25T19:46:05.512Z,31.90
2019-01-25T19:48:33.381Z,37.77
2019-01-25T19:51:01.585Z,36.63
2019-01-25T19:53:30.346Z,38.20
2019-01-25T19:55:58.285Z,34.43
2019-01-25T19:58:27.178Z,34.80
2019-01-25T20:00:55.196Z,32.13
2019-01-25T20:03:23.365Z,30.57
2019-01-25T20:05:51.339Z,33.37
2019-01-25T20:08:19.353Z,34.33
2019-01-25T20:10:48.517Z,28.93
2019-01-25T20:13:17.944Z,32.07
2019-01-25T20:15:45.848Z,27.63
2019-01-25T20:18:14.257Z,32.70
2019-01-25T20:20:42.161Z,26.03
2019-01-25T20:23:10.015Z,22.87
2019-01-25T20:25:41.743Z,25.37
2019-01-25T20:28:09.808Z,30.50
2019-01-25T20:30:37.727Z,21.37
2019-01-25T20:33:05.648Z,22.73
2019-01-25T20:35:34.597Z,21.43
2019-01-25T20:38:03.060Z,22.70
2019-01-25T20:40:30.926Z,18.57
2019-01-25T20:42:58.974Z,24.40
2019-01-25T20:45:28.130Z,24.90
2019-01-25T20:47:56.042Z,15.70
2019-01-25T20:50:24.945Z,19.60
2019-01-25T20:52:52.799Z,15.17
2019-01-25T20:55:20.882Z,22.93
2019-01-25T20:57:48.930Z,17.63
2019-01-25T21:00:18.260Z,19.43
2019-01-25T21:02:46.359Z,18.77
2019-01-25T21:05:14.433Z,18.40
2019-01-25T21:07:42.235Z,17.37
2019-01-25T21:10:11.069Z,23.30
2019-01-25T21:12:41.927Z,15.33
2019-01-25T21:15:10.729Z,18.97
2019-01-25T21:17:38.675Z,17.20
2019-01-25T21:20:08.566Z,18.23
2019-01-25T21:22:36.391Z,25.13
2019-01-25T21:25:06.356Z,18.53
2019-01-25T21:27:34.152Z,20.43
2019-01-25T21:30:02.054Z,19.97
2019-01-25T21:32:30.025Z,21.73
2019-01-25T21:34:57.866Z,17.37
2019-01-25T21:37:25.817Z,15.17
2019-01-25T21:39:53.715Z,19.47
2019-01-25T21:42:21.573Z,13.73
2019-01-25T21:44:49.455Z,21.33
2019-01-25T21:47:17.563Z,25.30
2019-01-25T21:49:45.479Z,19.60
2019-01-25T21:52:13.347Z,15.90
2019-01-25T21:54:41.301Z,19.53
2019-01-25T21:57:10.796Z,18.87
2019-01-25T21:59:38.797Z,16.10
2019-01-25T22:02:07.110Z,22.10
2019-01-25T22:04:35.082Z,21.63
2019-01-25T22:07:02.999Z,23.07
2019-01-25T22:09:30.908Z,15.80
2019-01-25T22:11:59.038Z,14.80
2019-01-25T22:14:26.963Z,22.17
2019-01-25T22:16:54.863Z,18.23
2019-01-25T22:19:22.776Z,16.37
2019-01-25T22:21:50.675Z,15.50
2019-01-25T22:24:18.576Z,18.70
2019-01-25T22:26:46.532Z,15.77
2019-01-25T22:29:14.394Z,18.37
2019-01-25T22:31:42.501Z,15.90
2019-01-25T22:34:10.391Z,16.10
2019-01-25T22:36:38.238Z,18.20
2019-01-25T22:39:09.430Z,20.33
2019-01-25T22:41:37.319Z,12.07
2019-01-25T22:44:05.611Z,19.90
2019-01-25T22:46:33.557Z,17.23
2019-01-25T22:49:01.403Z,16.27
2019-01-25T22:51:29.278Z,17.87
2019-01-25T22:53:58.471Z,16.77
2019-01-25T22:56:26.463Z,14.63
2019-01-25T22:58:54.356Z,20.73
2019-01-25T23:01:30.464Z,15.83
2019-01-25T23:04:29.172Z,22.15
2019-01-25T23:07:10.677Z,17.20
2019-01-25T23:09:40.197Z,21.93
2019-01-25T23:12:08.099Z,18.17
2019-01-25T23:14:36.093Z,20.13
2019-01-25T23:17:04.014Z,16.47
2019-01-25T23:19:32.181Z,19.20
2019-01-25T23:22:00.194Z,16.33
2019-01-25T23:24:28.159Z,17.97
2019-01-25T23:26:56.154Z,16.93
2019-01-25T23:29:24.132Z,17.77
2019-01-25T23:31:52.104Z,22.80
2019-01-25T23:34:19.978Z,19.47
2019-01-25T23:36:47.907Z,19.50
2019-01-25T23:39:15.886Z,19.80
2019-01-25T23:41:43.744Z,19.33
2019-01-25T23:44:11.865Z,21.13
2019-01-25T23:46:39.739Z,20.90
2019-01-25T23:49:07.604Z,15.83
2019-01-25T23:51:35.713Z,19.13
2019-01-25T23:54:04.598Z,20.63
2019-01-25T23:56:32.484Z,17.53
2019-01-25T23:59:00.472Z,20.10
